Aviation Digital Data Service (ADDS)

Output produced by METARs form (1102 UTC 28 July 2021)
found at http://aviationweather.gov/metar/data/
 
METAR text: KARR 281059Z AUTO 08008KT 10SM VCTS -RA FEW075 BKN110 23/22 A3004 RMK AO2 LTG DSNT E-S TSE53 P0000 T02280217
Conditions at: KARR (CHICAGO/AURORA , IL, US) observed 1059 UTC 28 July 2021
Temperature: 22.8°C (73°F)
Dewpoint: 21.7°C (71°F) [RH = 94%]
Pressure (altimeter): 30.04 inches Hg (1017.4 mb)
Winds: from the E (80 degrees) at 9 MPH (8 knots; 4.1 m/s)
Visibility: 10 or more miles (16+ km)
Ceiling: 11000 feet AGL
Clouds: few clouds at 7500 feet AGL
broken clouds at 11000 feet AGL
Weather: VCTS -RA  (thunderstorm in vicinity, light rain)